Terminal Aerodrome Forecast
Issued by NWS Central Illinois

Home | Current Version | Previous Version | Text Only | Print | Product List | Glossary On
Versions: 1 2 3 4 5 6 7 8 9 10 11 12
000
FTUS43 KILX 302333
TAFSPI
TAF
KSPI 302333Z 3100/3124 VRB03KT P6SM SCT050
     FM310600 16004KT 4SM BR SCT250
     FM311100 17005KT 2SM BR FEW250
     FM311500 17008KT 5SM HZ SCT250
     FM311800 18008KT P6SM SCT035=

USA.gov is the U.S. government's official web portal to all federal, state and local government web resources and services.